sensor_id;sensor_type;location;lat;lon;timestamp;P1;durP1;ratioP1;P2;durP2;ratioP2
59504;SDS011;45321;53.200;5.814;2022-10-16T00:00:43;8.63;;;1.45;;
59504;SDS011;45321;53.200;5.814;2022-10-16T00:03:09;6.10;;;1.30;;
59504;SDS011;45321;53.200;5.814;2022-10-16T00:05:43;9.07;;;1.38;;
59504;SDS011;45321;53.200;5.814;2022-10-16T00:08:10;8.32;;;1.35;;
59504;SDS011;45321;53.200;5.814;2022-10-16T00:10:37;8.70;;;1.30;;
59504;SDS011;45321;53.200;5.814;2022-10-16T00:13:03;5.78;;;1.10;;
59504;SDS011;45321;53.200;5.814;2022-10-16T00:15:30;15.35;;;2.17;;
59504;SDS011;45321;53.200;5.814;2022-10-16T00:17:58;7.75;;;1.30;;
59504;SDS011;45321;53.200;5.814;2022-10-16T00:20:24;8.82;;;1.75;;
59504;SDS011;45321;53.200;5.814;2022-10-16T00:22:49;8.38;;;1.20;;
59504;SDS011;45321;53.200;5.814;2022-10-16T00:25:15;4.95;;;1.00;;
59504;SDS011;45321;53.200;5.814;2022-10-16T00:27:41;8.27;;;1.95;;
59504;SDS011;45321;53.200;5.814;2022-10-16T00:30:07;7.72;;;1.10;;
59504;SDS011;45321;53.200;5.814;2022-10-16T00:32:33;5.40;;;1.10;;
59504;SDS011;45321;53.200;5.814;2022-10-16T00:34:59;8.13;;;1.13;;
59504;SDS011;45321;53.200;5.814;2022-10-16T00:37:25;5.35;;;1.20;;
59504;SDS011;45321;53.200;5.814;2022-10-16T00:39:50;6.88;;;1.20;;
59504;SDS011;45321;53.200;5.814;2022-10-16T00:42:16;6.88;;;1.10;;
59504;SDS011;45321;53.200;5.814;2022-10-16T00:47:19;5.65;;;1.05;;
59504;SDS011;45321;53.200;5.814;2022-10-16T00:52:57;7.22;;;1.38;;
59504;SDS011;45321;53.200;5.814;2022-10-16T00:55:25;9.10;;;1.77;;
59504;SDS011;45321;53.200;5.814;2022-10-16T00:57:53;6.07;;;1.02;;
59504;SDS011;45321;53.200;5.814;2022-10-16T01:00:23;7.78;;;1.20;;
59504;SDS011;45321;53.200;5.814;2022-10-16T01:03:00;8.27;;;1.15;;
59504;SDS011;45321;53.200;5.814;2022-10-16T01:05:30;7.50;;;1.33;;
59504;SDS011;45321;53.200;5.814;2022-10-16T01:08:09;5.57;;;1.35;;
59504;SDS011;45321;53.200;5.814;2022-10-16T01:10:44;3.33;;;0.85;;
59504;SDS011;45321;53.200;5.814;2022-10-16T01:13:29;3.45;;;1.05;;
59504;SDS011;45321;53.200;5.814;2022-10-16T01:16:05;7.72;;;0.82;;
59504;SDS011;45321;53.200;5.814;2022-10-16T01:18:44;5.50;;;1.00;;
59504;SDS011;45321;53.200;5.814;2022-10-16T01:21:16;4.78;;;0.88;;
59504;SDS011;45321;53.200;5.814;2022-10-16T01:26:50;4.10;;;1.08;;
59504;SDS011;45321;53.200;5.814;2022-10-16T01:32:10;2.65;;;1.00;;
59504;SDS011;45321;53.200;5.814;2022-10-16T01:34:42;5.28;;;1.10;;
59504;SDS011;45321;53.200;5.814;2022-10-16T01:37:16;4.93;;;0.90;;
59504;SDS011;45321;53.200;5.814;2022-10-16T01:39:58;4.38;;;1.08;;
59504;SDS011;45321;53.200;5.814;2022-10-16T01:42:33;5.00;;;0.80;;
59504;SDS011;45321;53.200;5.814;2022-10-16T01:45:01;6.35;;;1.10;;
59504;SDS011;45321;53.200;5.814;2022-10-16T01:47:31;4.07;;;1.02;;
59504;SDS011;45321;53.200;5.814;2022-10-16T01:49:58;7.85;;;1.20;;
59504;SDS011;45321;53.200;5.814;2022-10-16T01:52:26;6.57;;;1.17;;
59504;SDS011;45321;53.200;5.814;2022-10-16T01:54:54;6.07;;;0.90;;
59504;SDS011;45321;53.200;5.814;2022-10-16T01:57:23;5.47;;;1.10;;
59504;SDS011;45321;53.200;5.814;2022-10-16T01:59:51;6.93;;;1.52;;
59504;SDS011;45321;53.200;5.814;2022-10-16T02:02:20;5.10;;;1.20;;
59504;SDS011;45321;53.200;5.814;2022-10-16T02:04:49;5.28;;;1.10;;
59504;SDS011;45321;53.200;5.814;2022-10-16T02:07:19;8.82;;;1.40;;
59504;SDS011;45321;53.200;5.814;2022-10-16T02:09:45;5.13;;;1.35;;
59504;SDS011;45321;53.200;5.814;2022-10-16T02:12:30;7.07;;;1.52;;
59504;SDS011;45321;53.200;5.814;2022-10-16T02:14:58;7.90;;;1.27;;
59504;SDS011;45321;53.200;5.814;2022-10-16T02:17:24;5.10;;;1.70;;
59504;SDS011;45321;53.200;5.814;2022-10-16T02:19:51;5.80;;;1.70;;
59504;SDS011;45321;53.200;5.814;2022-10-16T02:22:25;8.15;;;2.33;;
59504;SDS011;45321;53.200;5.814;2022-10-16T02:30:31;3.47;;;1.52;;
59504;SDS011;45321;53.200;5.814;2022-10-16T02:33:05;3.80;;;1.70;;
59504;SDS011;45321;53.200;5.814;2022-10-16T02:35:34;5.40;;;1.52;;
59504;SDS011;45321;53.200;5.814;2022-10-16T02:38:00;4.63;;;1.70;;
59504;SDS011;45321;53.200;5.814;2022-10-16T02:40:27;5.63;;;1.73;;
59504;SDS011;45321;53.200;5.814;2022-10-16T02:42:53;7.97;;;1.80;;
59504;SDS011;45321;53.200;5.814;2022-10-16T02:45:22;4.97;;;1.50;;
59504;SDS011;45321;53.200;5.814;2022-10-16T02:47:48;4.00;;;1.45;;
59504;SDS011;45321;53.200;5.814;2022-10-16T02:50:14;4.90;;;1.80;;
59504;SDS011;45321;53.200;5.814;2022-10-16T02:52:41;6.35;;;1.80;;
59504;SDS011;45321;53.200;5.814;2022-10-16T02:55:06;5.75;;;2.22;;
59504;SDS011;45321;53.200;5.814;2022-10-16T02:57:32;7.90;;;2.00;;
59504;SDS011;45321;53.200;5.814;2022-10-16T02:59:58;5.53;;;1.60;;
59504;SDS011;45321;53.200;5.814;2022-10-16T03:02:24;4.78;;;1.88;;
59504;SDS011;45321;53.200;5.814;2022-10-16T03:04:50;2.53;;;1.50;;
59504;SDS011;45321;53.200;5.814;2022-10-16T03:07:15;4.60;;;1.52;;
59504;SDS011;45321;53.200;5.814;2022-10-16T03:09:41;5.85;;;2.03;;
59504;SDS011;45321;53.200;5.814;2022-10-16T03:12:07;4.07;;;1.70;;
59504;SDS011;45321;53.200;5.814;2022-10-16T03:14:33;8.75;;;1.70;;
59504;SDS011;45321;53.200;5.814;2022-10-16T03:16:59;4.80;;;1.75;;
59504;SDS011;45321;53.200;5.814;2022-10-16T03:19:25;3.05;;;1.13;;
59504;SDS011;45321;53.200;5.814;2022-10-16T03:21:50;2.47;;;1.33;;
59504;SDS011;45321;53.200;5.814;2022-10-16T03:24:16;5.70;;;1.50;;
59504;SDS011;45321;53.200;5.814;2022-10-16T03:26:42;4.38;;;1.73;;
59504;SDS011;45321;53.200;5.814;2022-10-16T03:29:07;2.88;;;1.35;;
59504;SDS011;45321;53.200;5.814;2022-10-16T03:31:33;4.75;;;1.40;;
59504;SDS011;45321;53.200;5.814;2022-10-16T03:33:59;8.10;;;1.30;;
59504;SDS011;45321;53.200;5.814;2022-10-16T03:36:25;8.38;;;1.27;;
59504;SDS011;45321;53.200;5.814;2022-10-16T03:38:50;3.38;;;0.93;;
59504;SDS011;45321;53.200;5.814;2022-10-16T03:41:16;7.15;;;1.50;;
59504;SDS011;45321;53.200;5.814;2022-10-16T03:43:42;5.05;;;1.42;;
59504;SDS011;45321;53.200;5.814;2022-10-16T03:46:08;6.57;;;1.80;;
59504;SDS011;45321;53.200;5.814;2022-10-16T03:48:33;4.15;;;1.20;;
59504;SDS011;45321;53.200;5.814;2022-10-16T03:50:59;5.25;;;1.30;;
59504;SDS011;45321;53.200;5.814;2022-10-16T03:53:25;8.38;;;1.23;;
59504;SDS011;45321;53.200;5.814;2022-10-16T03:55:51;6.65;;;1.00;;
59504;SDS011;45321;53.200;5.814;2022-10-16T03:58:16;6.53;;;1.23;;
59504;SDS011;45321;53.200;5.814;2022-10-16T04:00:42;6.35;;;2.03;;
59504;SDS011;45321;53.200;5.814;2022-10-16T04:03:09;5.88;;;1.40;;
59504;SDS011;45321;53.200;5.814;2022-10-16T04:05:35;4.38;;;1.38;;
59504;SDS011;45321;53.200;5.814;2022-10-16T04:08:01;6.57;;;1.40;;
59504;SDS011;45321;53.200;5.814;2022-10-16T04:10:27;8.45;;;1.60;;
59504;SDS011;45321;53.200;5.814;2022-10-16T04:12:53;6.93;;;2.05;;
59504;SDS011;45321;53.200;5.814;2022-10-16T04:15:21;11.90;;;1.50;;
59504;SDS011;45321;53.200;5.814;2022-10-16T04:17:47;6.53;;;1.60;;
59504;SDS011;45321;53.200;5.814;2022-10-16T04:20:13;5.55;;;1.45;;
59504;SDS011;45321;53.200;5.814;2022-10-16T04:22:38;4.72;;;1.60;;
59504;SDS011;45321;53.200;5.814;2022-10-16T04:25:04;4.88;;;1.60;;
59504;SDS011;45321;53.200;5.814;2022-10-16T04:27:30;4.50;;;1.40;;
59504;SDS011;45321;53.200;5.814;2022-10-16T04:29:57;6.40;;;1.50;;
59504;SDS011;45321;53.200;5.814;2022-10-16T04:32:23;7.43;;;2.55;;
59504;SDS011;45321;53.200;5.814;2022-10-16T04:34:48;4.80;;;1.42;;
59504;SDS011;45321;53.200;5.814;2022-10-16T04:37:14;6.03;;;1.55;;
59504;SDS011;45321;53.200;5.814;2022-10-16T04:39:40;5.60;;;1.17;;
59504;SDS011;45321;53.200;5.814;2022-10-16T04:42:06;6.90;;;1.60;;
59504;SDS011;45321;53.200;5.814;2022-10-16T04:44:31;5.13;;;1.27;;
59504;SDS011;45321;53.200;5.814;2022-10-16T04:46:57;10.80;;;1.60;;
59504;SDS011;45321;53.200;5.814;2022-10-16T04:49:23;4.70;;;1.40;;
59504;SDS011;45321;53.200;5.814;2022-10-16T04:51:48;5.70;;;1.20;;
59504;SDS011;45321;53.200;5.814;2022-10-16T04:54:14;8.55;;;1.58;;
59504;SDS011;45321;53.200;5.814;2022-10-16T04:56:40;4.20;;;1.00;;
59504;SDS011;45321;53.200;5.814;2022-10-16T04:59:12;6.40;;;1.17;;
59504;SDS011;45321;53.200;5.814;2022-10-16T05:01:38;5.60;;;1.10;;
59504;SDS011;45321;53.200;5.814;2022-10-16T05:04:04;4.65;;;1.17;;
59504;SDS011;45321;53.200;5.814;2022-10-16T05:06:30;5.85;;;1.33;;
59504;SDS011;45321;53.200;5.814;2022-10-16T05:08:55;6.00;;;1.25;;
59504;SDS011;45321;53.200;5.814;2022-10-16T05:11:21;3.83;;;0.93;;
59504;SDS011;45321;53.200;5.814;2022-10-16T05:13:47;4.13;;;1.67;;
59504;SDS011;45321;53.200;5.814;2022-10-16T05:16:12;4.97;;;1.25;;
59504;SDS011;45321;53.200;5.814;2022-10-16T05:18:38;5.68;;;1.10;;
59504;SDS011;45321;53.200;5.814;2022-10-16T05:21:04;5.53;;;1.55;;
59504;SDS011;45321;53.200;5.814;2022-10-16T05:23:31;3.50;;;1.65;;
59504;SDS011;45321;53.200;5.814;2022-10-16T05:25:57;6.38;;;1.95;;
59504;SDS011;45321;53.200;5.814;2022-10-16T05:28:27;7.07;;;2.00;;
59504;SDS011;45321;53.200;5.814;2022-10-16T05:30:55;5.25;;;2.10;;
59504;SDS011;45321;53.200;5.814;2022-10-16T05:33:21;4.13;;;2.20;;
59504;SDS011;45321;53.200;5.814;2022-10-16T05:35:48;8.23;;;2.72;;
59504;SDS011;45321;53.200;5.814;2022-10-16T05:38:15;3.63;;;2.45;;
59504;SDS011;45321;53.200;5.814;2022-10-16T05:40:50;5.80;;;2.63;;
59504;SDS011;45321;53.200;5.814;2022-10-16T05:43:17;6.80;;;2.50;;
59504;SDS011;45321;53.200;5.814;2022-10-16T05:45:43;9.63;;;3.03;;
59504;SDS011;45321;53.200;5.814;2022-10-16T05:48:09;5.88;;;2.65;;
59504;SDS011;45321;53.200;5.814;2022-10-16T05:50:34;9.25;;;2.78;;
59504;SDS011;45321;53.200;5.814;2022-10-16T05:53:00;5.28;;;2.80;;
59504;SDS011;45321;53.200;5.814;2022-10-16T05:55:25;4.35;;;2.75;;
59504;SDS011;45321;53.200;5.814;2022-10-16T05:57:53;6.35;;;2.72;;
59504;SDS011;45321;53.200;5.814;2022-10-16T06:00:19;5.30;;;2.80;;
59504;SDS011;45321;53.200;5.814;2022-10-16T06:02:45;7.15;;;2.70;;
59504;SDS011;45321;53.200;5.814;2022-10-16T06:05:11;9.52;;;2.92;;
59504;SDS011;45321;53.200;5.814;2022-10-16T06:07:37;11.13;;;2.60;;
59504;SDS011;45321;53.200;5.814;2022-10-16T06:10:03;5.82;;;2.28;;
59504;SDS011;45321;53.200;5.814;2022-10-16T06:12:29;8.45;;;2.63;;
59504;SDS011;45321;53.200;5.814;2022-10-16T06:14:55;7.50;;;3.15;;
59504;SDS011;45321;53.200;5.814;2022-10-16T06:17:20;7.20;;;2.30;;
59504;SDS011;45321;53.200;5.814;2022-10-16T06:19:46;7.00;;;3.00;;
59504;SDS011;45321;53.200;5.814;2022-10-16T06:22:12;8.35;;;2.50;;
59504;SDS011;45321;53.200;5.814;2022-10-16T06:24:38;5.53;;;2.58;;
59504;SDS011;45321;53.200;5.814;2022-10-16T06:27:04;8.88;;;2.65;;
59504;SDS011;45321;53.200;5.814;2022-10-16T06:29:30;12.23;;;2.85;;
59504;SDS011;45321;53.200;5.814;2022-10-16T06:31:55;8.85;;;2.33;;
59504;SDS011;45321;53.200;5.814;2022-10-16T06:34:21;7.82;;;2.33;;
59504;SDS011;45321;53.200;5.814;2022-10-16T06:36:47;7.78;;;2.45;;
59504;SDS011;45321;53.200;5.814;2022-10-16T06:39:12;7.82;;;2.28;;
59504;SDS011;45321;53.200;5.814;2022-10-16T06:41:38;12.45;;;2.17;;
59504;SDS011;45321;53.200;5.814;2022-10-16T06:44:05;7.05;;;1.75;;
59504;SDS011;45321;53.200;5.814;2022-10-16T06:46:31;6.97;;;2.00;;
59504;SDS011;45321;53.200;5.814;2022-10-16T06:48:57;5.70;;;1.90;;
59504;SDS011;45321;53.200;5.814;2022-10-16T06:51:23;6.30;;;1.75;;
59504;SDS011;45321;53.200;5.814;2022-10-16T06:53:52;7.82;;;2.50;;
59504;SDS011;45321;53.200;5.814;2022-10-16T06:56:20;7.55;;;2.88;;
59504;SDS011;45321;53.200;5.814;2022-10-16T06:58:47;8.55;;;2.30;;
59504;SDS011;45321;53.200;5.814;2022-10-16T07:01:14;6.95;;;2.15;;
59504;SDS011;45321;53.200;5.814;2022-10-16T07:03:42;5.65;;;1.67;;
59504;SDS011;45321;53.200;5.814;2022-10-16T07:06:10;3.63;;;1.52;;
59504;SDS011;45321;53.200;5.814;2022-10-16T07:08:39;6.53;;;2.08;;
59504;SDS011;45321;53.200;5.814;2022-10-16T07:11:07;6.05;;;1.70;;
59504;SDS011;45321;53.200;5.814;2022-10-16T07:13:35;9.70;;;2.20;;
59504;SDS011;45321;53.200;5.814;2022-10-16T07:16:08;5.38;;;1.33;;
59504;SDS011;45321;53.200;5.814;2022-10-16T07:18:34;6.68;;;1.65;;
59504;SDS011;45321;53.200;5.814;2022-10-16T07:21:05;4.03;;;1.42;;
59504;SDS011;45321;53.200;5.814;2022-10-16T07:23:32;5.82;;;1.85;;
59504;SDS011;45321;53.200;5.814;2022-10-16T07:25:57;8.50;;;1.88;;
59504;SDS011;45321;53.200;5.814;2022-10-16T07:28:23;5.20;;;2.13;;
59504;SDS011;45321;53.200;5.814;2022-10-16T07:30:49;7.47;;;2.53;;
59504;SDS011;45321;53.200;5.814;2022-10-16T07:33:15;5.80;;;1.95;;
59504;SDS011;45321;53.200;5.814;2022-10-16T07:35:53;10.85;;;2.60;;
59504;SDS011;45321;53.200;5.814;2022-10-16T07:38:20;5.47;;;2.05;;
59504;SDS011;45321;53.200;5.814;2022-10-16T07:40:46;6.22;;;2.30;;
59504;SDS011;45321;53.200;5.814;2022-10-16T07:43:15;7.25;;;2.20;;
59504;SDS011;45321;53.200;5.814;2022-10-16T07:45:48;6.38;;;2.80;;
59504;SDS011;45321;53.200;5.814;2022-10-16T07:48:14;5.55;;;2.58;;
59504;SDS011;45321;53.200;5.814;2022-10-16T07:50:41;7.65;;;2.90;;
59504;SDS011;45321;53.200;5.814;2022-10-16T07:53:07;9.07;;;2.70;;
59504;SDS011;45321;53.200;5.814;2022-10-16T07:55:33;10.30;;;2.63;;
59504;SDS011;45321;53.200;5.814;2022-10-16T07:57:58;6.80;;;3.08;;
59504;SDS011;45321;53.200;5.814;2022-10-16T08:00:24;9.68;;;2.35;;
59504;SDS011;45321;53.200;5.814;2022-10-16T08:02:50;7.63;;;2.58;;
59504;SDS011;45321;53.200;5.814;2022-10-16T08:05:15;8.38;;;2.70;;
59504;SDS011;45321;53.200;5.814;2022-10-16T08:07:41;8.50;;;1.92;;
59504;SDS011;45321;53.200;5.814;2022-10-16T08:10:11;7.30;;;2.20;;
59504;SDS011;45321;53.200;5.814;2022-10-16T08:12:41;4.30;;;1.75;;
59504;SDS011;45321;53.200;5.814;2022-10-16T08:15:07;5.65;;;2.10;;
59504;SDS011;45321;53.200;5.814;2022-10-16T08:17:34;6.82;;;2.30;;
59504;SDS011;45321;53.200;5.814;2022-10-16T08:19:59;5.25;;;2.00;;
59504;SDS011;45321;53.200;5.814;2022-10-16T08:22:25;5.90;;;2.10;;
59504;SDS011;45321;53.200;5.814;2022-10-16T08:24:51;5.18;;;2.22;;
59504;SDS011;45321;53.200;5.814;2022-10-16T08:27:17;5.63;;;1.90;;
59504;SDS011;45321;53.200;5.814;2022-10-16T08:29:42;8.18;;;2.10;;
59504;SDS011;45321;53.200;5.814;2022-10-16T08:32:11;6.45;;;1.92;;
59504;SDS011;45321;53.200;5.814;2022-10-16T08:34:36;6.97;;;1.83;;
59504;SDS011;45321;53.200;5.814;2022-10-16T08:37:02;4.63;;;1.80;;
59504;SDS011;45321;53.200;5.814;2022-10-16T08:39:28;12.90;;;2.38;;
59504;SDS011;45321;53.200;5.814;2022-10-16T08:50:31;8.47;;;1.70;;
59504;SDS011;45321;53.200;5.814;2022-10-16T08:53:00;9.55;;;2.05;;
59504;SDS011;45321;53.200;5.814;2022-10-16T08:57:54;6.20;;;1.63;;
59504;SDS011;45321;53.200;5.814;2022-10-16T09:00:20;12.88;;;2.17;;
59504;SDS011;45321;53.200;5.814;2022-10-16T09:05:45;10.50;;;1.80;;
59504;SDS011;45321;53.200;5.814;2022-10-16T09:08:37;8.55;;;1.70;;
59504;SDS011;45321;53.200;5.814;2022-10-16T09:23:00;10.90;;;1.75;;
59504;SDS011;45321;53.200;5.814;2022-10-16T09:25:38;9.07;;;2.17;;
59504;SDS011;45321;53.200;5.814;2022-10-16T09:28:07;10.07;;;2.22;;
59504;SDS011;45321;53.200;5.814;2022-10-16T09:30:34;9.98;;;1.92;;
59504;SDS011;45321;53.200;5.814;2022-10-16T09:33:00;12.45;;;2.03;;
59504;SDS011;45321;53.200;5.814;2022-10-16T09:35:44;9.18;;;2.30;;
59504;SDS011;45321;53.200;5.814;2022-10-16T09:38:30;7.78;;;1.90;;
59504;SDS011;45321;53.200;5.814;2022-10-16T09:41:01;8.98;;;2.45;;
59504;SDS011;45321;53.200;5.814;2022-10-16T09:43:48;12.00;;;4.25;;
59504;SDS011;45321;53.200;5.814;2022-10-16T09:46:21;15.30;;;4.18;;
59504;SDS011;45321;53.200;5.814;2022-10-16T09:49:20;12.65;;;3.35;;
59504;SDS011;45321;53.200;5.814;2022-10-16T09:51:51;9.63;;;2.58;;
59504;SDS011;45321;53.200;5.814;2022-10-16T09:54:28;13.43;;;3.33;;
59504;SDS011;45321;53.200;5.814;2022-10-16T09:57:03;13.45;;;3.03;;
59504;SDS011;45321;53.200;5.814;2022-10-16T09:59:31;9.18;;;2.83;;
59504;SDS011;45321;53.200;5.814;2022-10-16T10:02:00;13.38;;;2.58;;
59504;SDS011;45321;53.200;5.814;2022-10-16T10:04:36;13.60;;;2.08;;
59504;SDS011;45321;53.200;5.814;2022-10-16T10:07:20;19.52;;;3.10;;
59504;SDS011;45321;53.200;5.814;2022-10-16T10:09:51;23.55;;;3.35;;
59504;SDS011;45321;53.200;5.814;2022-10-16T10:14:46;23.50;;;3.45;;
59504;SDS011;45321;53.200;5.814;2022-10-16T10:17:20;20.60;;;2.80;;
59504;SDS011;45321;53.200;5.814;2022-10-16T10:22:27;20.95;;;3.80;;
59504;SDS011;45321;53.200;5.814;2022-10-16T10:25:13;16.98;;;3.03;;
59504;SDS011;45321;53.200;5.814;2022-10-16T10:33:45;19.02;;;3.67;;
59504;SDS011;45321;53.200;5.814;2022-10-16T10:36:39;20.20;;;5.30;;
59504;SDS011;45321;53.200;5.814;2022-10-16T10:39:16;20.30;;;3.08;;
59504;SDS011;45321;53.200;5.814;2022-10-16T10:47:13;23.00;;;3.17;;
59504;SDS011;45321;53.200;5.814;2022-10-16T10:50:22;16.40;;;2.47;;
59504;SDS011;45321;53.200;5.814;2022-10-16T10:55:43;15.40;;;2.85;;
59504;SDS011;45321;53.200;5.814;2022-10-16T11:01:16;21.15;;;2.58;;
59504;SDS011;45321;53.200;5.814;2022-10-16T11:06:29;11.15;;;2.10;;
59504;SDS011;45321;53.200;5.814;2022-10-16T11:12:18;17.15;;;2.35;;
59504;SDS011;45321;53.200;5.814;2022-10-16T11:17:59;14.73;;;2.17;;
59504;SDS011;45321;53.200;5.814;2022-10-16T11:20:32;10.98;;;2.22;;
59504;SDS011;45321;53.200;5.814;2022-10-16T11:25:39;15.90;;;2.72;;
59504;SDS011;45321;53.200;5.814;2022-10-16T11:28:16;12.02;;;2.08;;
59504;SDS011;45321;53.200;5.814;2022-10-16T11:33:41;14.88;;;2.25;;
59504;SDS011;45321;53.200;5.814;2022-10-16T11:39:00;10.98;;;2.00;;
59504;SDS011;45321;53.200;5.814;2022-10-16T11:41:58;10.80;;;2.42;;
59504;SDS011;45321;53.200;5.814;2022-10-16T11:44:57;15.00;;;3.28;;
59504;SDS011;45321;53.200;5.814;2022-10-16T11:50:23;13.30;;;2.60;;
59504;SDS011;45321;53.200;5.814;2022-10-16T11:55:45;12.40;;;2.13;;
59504;SDS011;45321;53.200;5.814;2022-10-16T12:00:59;12.63;;;2.33;;
59504;SDS011;45321;53.200;5.814;2022-10-16T12:03:41;10.65;;;1.90;;
59504;SDS011;45321;53.200;5.814;2022-10-16T12:08:41;11.40;;;2.13;;
59504;SDS011;45321;53.200;5.814;2022-10-16T12:11:20;11.00;;;1.70;;
59504;SDS011;45321;53.200;5.814;2022-10-16T12:16:53;12.15;;;2.67;;
59504;SDS011;45321;53.200;5.814;2022-10-16T12:19:22;10.80;;;2.13;;
59504;SDS011;45321;53.200;5.814;2022-10-16T12:21:49;9.57;;;2.10;;
59504;SDS011;45321;53.200;5.814;2022-10-16T12:26:56;14.40;;;1.83;;
59504;SDS011;45321;53.200;5.814;2022-10-16T12:29:31;9.50;;;1.83;;
59504;SDS011;45321;53.200;5.814;2022-10-16T12:32:03;12.43;;;2.10;;
59504;SDS011;45321;53.200;5.814;2022-10-16T12:37:08;13.68;;;2.15;;
59504;SDS011;45321;53.200;5.814;2022-10-16T12:39:37;13.48;;;1.88;;
59504;SDS011;45321;53.200;5.814;2022-10-16T12:42:04;14.20;;;2.08;;
59504;SDS011;45321;53.200;5.814;2022-10-16T12:44:44;14.00;;;2.58;;
59504;SDS011;45321;53.200;5.814;2022-10-16T12:47:19;12.15;;;2.10;;
59504;SDS011;45321;53.200;5.814;2022-10-16T12:49:53;10.13;;;2.17;;
59504;SDS011;45321;53.200;5.814;2022-10-16T12:52:38;12.52;;;2.50;;
59504;SDS011;45321;53.200;5.814;2022-10-16T12:55:05;9.23;;;2.40;;
59504;SDS011;45321;53.200;5.814;2022-10-16T13:00:28;14.80;;;2.13;;
59504;SDS011;45321;53.200;5.814;2022-10-16T13:03:26;12.05;;;1.92;;
59504;SDS011;45321;53.200;5.814;2022-10-16T13:06:08;14.07;;;2.28;;
59504;SDS011;45321;53.200;5.814;2022-10-16T13:17:39;13.35;;;2.35;;
59504;SDS011;45321;53.200;5.814;2022-10-16T13:20:35;15.23;;;3.05;;
59504;SDS011;45321;53.200;5.814;2022-10-16T13:23:09;10.77;;;2.15;;
59504;SDS011;45321;53.200;5.814;2022-10-16T13:26:06;15.70;;;2.40;;
59504;SDS011;45321;53.200;5.814;2022-10-16T13:28:52;11.40;;;2.47;;
59504;SDS011;45321;53.200;5.814;2022-10-16T13:31:19;14.38;;;2.15;;
59504;SDS011;45321;53.200;5.814;2022-10-16T13:33:48;13.93;;;2.70;;
59504;SDS011;45321;53.200;5.814;2022-10-16T13:36:29;14.40;;;2.35;;
59504;SDS011;45321;53.200;5.814;2022-10-16T13:39:12;10.02;;;2.78;;
59504;SDS011;45321;53.200;5.814;2022-10-16T13:41:40;9.35;;;2.28;;
59504;SDS011;45321;53.200;5.814;2022-10-16T13:44:16;10.70;;;2.15;;
59504;SDS011;45321;53.200;5.814;2022-10-16T13:46:45;12.32;;;2.50;;
59504;SDS011;45321;53.200;5.814;2022-10-16T13:49:12;10.73;;;1.90;;
59504;SDS011;45321;53.200;5.814;2022-10-16T13:51:53;12.77;;;2.00;;
59504;SDS011;45321;53.200;5.814;2022-10-16T13:54:23;11.13;;;2.22;;
59504;SDS011;45321;53.200;5.814;2022-10-16T13:56:50;14.88;;;4.70;;
59504;SDS011;45321;53.200;5.814;2022-10-16T13:59:23;9.65;;;1.75;;
59504;SDS011;45321;53.200;5.814;2022-10-16T14:01:54;15.05;;;2.30;;
59504;SDS011;45321;53.200;5.814;2022-10-16T14:04:22;11.73;;;1.80;;
59504;SDS011;45321;53.200;5.814;2022-10-16T14:06:49;11.82;;;2.10;;
59504;SDS011;45321;53.200;5.814;2022-10-16T14:09:26;12.52;;;2.35;;
59504;SDS011;45321;53.200;5.814;2022-10-16T14:11:58;9.45;;;1.85;;
59504;SDS011;45321;53.200;5.814;2022-10-16T14:14:27;12.70;;;1.63;;
59504;SDS011;45321;53.200;5.814;2022-10-16T14:19:52;10.00;;;1.55;;
59504;SDS011;45321;53.200;5.814;2022-10-16T14:30:29;13.48;;;2.40;;
59504;SDS011;45321;53.200;5.814;2022-10-16T14:32:58;10.75;;;1.90;;
59504;SDS011;45321;53.200;5.814;2022-10-16T14:35:30;11.13;;;1.92;;
59504;SDS011;45321;53.200;5.814;2022-10-16T14:38:01;14.02;;;2.10;;
59504;SDS011;45321;53.200;5.814;2022-10-16T14:40:29;11.45;;;2.25;;
59504;SDS011;45321;53.200;5.814;2022-10-16T14:43:02;13.20;;;1.95;;
59504;SDS011;45321;53.200;5.814;2022-10-16T14:45:31;11.35;;;2.17;;
59504;SDS011;45321;53.200;5.814;2022-10-16T14:48:00;10.80;;;2.00;;
59504;SDS011;45321;53.200;5.814;2022-10-16T14:50:29;16.38;;;5.57;;
59504;SDS011;45321;53.200;5.814;2022-10-16T14:52:55;36.22;;;14.82;;
59504;SDS011;45321;53.200;5.814;2022-10-16T14:55:21;20.23;;;6.20;;
59504;SDS011;45321;53.200;5.814;2022-10-16T14:57:47;18.77;;;5.07;;
59504;SDS011;45321;53.200;5.814;2022-10-16T15:00:20;49.88;;;24.42;;
59504;SDS011;45321;53.200;5.814;2022-10-16T15:02:48;30.77;;;11.88;;
59504;SDS011;45321;53.200;5.814;2022-10-16T15:05:18;18.27;;;7.20;;
59504;SDS011;45321;53.200;5.814;2022-10-16T15:07:50;17.60;;;7.35;;
59504;SDS011;45321;53.200;5.814;2022-10-16T15:10:17;23.80;;;8.43;;
59504;SDS011;45321;53.200;5.814;2022-10-16T15:12:43;18.40;;;5.07;;
59504;SDS011;45321;53.200;5.814;2022-10-16T15:15:21;14.25;;;2.80;;
59504;SDS011;45321;53.200;5.814;2022-10-16T15:17:49;13.73;;;3.75;;
59504;SDS011;45321;53.200;5.814;2022-10-16T15:20:18;19.17;;;4.50;;
59504;SDS011;45321;53.200;5.814;2022-10-16T15:22:44;22.35;;;8.85;;
59504;SDS011;45321;53.200;5.814;2022-10-16T15:27:54;24.35;;;10.82;;
59504;SDS011;45321;53.200;5.814;2022-10-16T15:30:20;27.60;;;12.80;;
59504;SDS011;45321;53.200;5.814;2022-10-16T15:32:45;30.40;;;19.30;;
59504;SDS011;45321;53.200;5.814;2022-10-16T15:35:11;18.75;;;10.02;;
59504;SDS011;45321;53.200;5.814;2022-10-16T15:37:37;22.02;;;8.98;;
59504;SDS011;45321;53.200;5.814;2022-10-16T15:40:03;17.10;;;7.18;;
59504;SDS011;45321;53.200;5.814;2022-10-16T15:42:29;13.57;;;3.20;;
59504;SDS011;45321;53.200;5.814;2022-10-16T15:44:54;15.27;;;4.43;;
59504;SDS011;45321;53.200;5.814;2022-10-16T15:47:20;17.55;;;5.95;;
59504;SDS011;45321;53.200;5.814;2022-10-16T15:49:46;21.42;;;8.43;;
59504;SDS011;45321;53.200;5.814;2022-10-16T15:52:12;16.33;;;6.03;;
59504;SDS011;45321;53.200;5.814;2022-10-16T15:54:38;23.30;;;12.73;;
59504;SDS011;45321;53.200;5.814;2022-10-16T15:57:03;16.48;;;8.07;;
59504;SDS011;45321;53.200;5.814;2022-10-16T15:59:29;17.45;;;9.70;;
59504;SDS011;45321;53.200;5.814;2022-10-16T16:01:55;20.10;;;10.35;;
59504;SDS011;45321;53.200;5.814;2022-10-16T16:04:21;18.20;;;9.48;;
59504;SDS011;45321;53.200;5.814;2022-10-16T16:06:46;15.88;;;5.47;;
59504;SDS011;45321;53.200;5.814;2022-10-16T16:09:13;16.33;;;4.95;;
59504;SDS011;45321;53.200;5.814;2022-10-16T16:11:39;12.25;;;4.05;;
59504;SDS011;45321;53.200;5.814;2022-10-16T16:14:05;13.55;;;3.15;;
59504;SDS011;45321;53.200;5.814;2022-10-16T16:16:31;14.00;;;3.35;;
59504;SDS011;45321;53.200;5.814;2022-10-16T16:19:03;12.93;;;3.38;;
59504;SDS011;45321;53.200;5.814;2022-10-16T16:21:31;13.57;;;3.15;;
59504;SDS011;45321;53.200;5.814;2022-10-16T16:23:57;13.30;;;4.13;;
59504;SDS011;45321;53.200;5.814;2022-10-16T16:26:26;15.80;;;3.90;;
59504;SDS011;45321;53.200;5.814;2022-10-16T16:28:57;18.15;;;4.03;;
59504;SDS011;45321;53.200;5.814;2022-10-16T16:31:24;14.00;;;3.25;;
59504;SDS011;45321;53.200;5.814;2022-10-16T16:33:51;16.38;;;3.40;;
59504;SDS011;45321;53.200;5.814;2022-10-16T16:36:17;14.82;;;3.47;;
59504;SDS011;45321;53.200;5.814;2022-10-16T16:38:44;11.70;;;2.67;;
59504;SDS011;45321;53.200;5.814;2022-10-16T16:41:14;14.82;;;3.15;;
59504;SDS011;45321;53.200;5.814;2022-10-16T16:43:48;13.88;;;3.42;;
59504;SDS011;45321;53.200;5.814;2022-10-16T16:46:14;16.98;;;4.15;;
59504;SDS011;45321;53.200;5.814;2022-10-16T16:48:40;14.40;;;4.85;;
59504;SDS011;45321;53.200;5.814;2022-10-16T16:51:07;18.40;;;6.90;;
59504;SDS011;45321;53.200;5.814;2022-10-16T16:53:34;22.98;;;8.73;;
59504;SDS011;45321;53.200;5.814;2022-10-16T16:56:01;23.38;;;11.40;;
59504;SDS011;45321;53.200;5.814;2022-10-16T16:58:28;19.65;;;8.70;;
59504;SDS011;45321;53.200;5.814;2022-10-16T17:00:54;16.05;;;6.93;;
59504;SDS011;45321;53.200;5.814;2022-10-16T17:03:19;19.80;;;7.32;;